This is the latest recevied weather packets stored in our database for station/object YO8RBY-2. If no packets are shown the sender has not sent any weather packets the latest 10 day(s).
| Time | Temp. | Humidity | Pressure | Rain* | Wind** | Luminosity | Snow |
|---|---|---|---|---|---|---|---|
| 1777215970 | 18.33° C | 18% | 971 hPa | - | - | 0 W/m² | - |
| 1777213995 | 19.44° C | 19% | 970 hPa | - | - | 0 W/m² | - |
| 1777212171 | 18.89° C | 19% | 970 hPa | - | - | 0 W/m² | - |
| 1777210346 | 19.44° C | 20% | 970 hPa | - | - | 0 W/m² | - |
| 1777208522 | 17.22° C | 22% | 970 hPa | - | - | 0 W/m² | - |
| 1777199399 | 19.44° C | 29% | 967 hPa | - | - | 0 W/m² | - |
| 1777197574 | 17.78° C | 31% | 967 hPa | - | - | 0 W/m² | - |
| 1777195749 | 18.33° C | 33% | 966 hPa | - | - | 0 W/m² | - |
| 1777193924 | 22.22° C | 27% | 965 hPa | - | - | 0 W/m² | - |
| 1777192100 | 25.56° C | 16% | 963 hPa | - | - | 0 W/m² | - |
| 1777190276 | 25.56° C | 17% | 963 hPa | - | - | 0 W/m² | - |
| 1777188452 | 26.11° C | 20% | 963 hPa | - | - | 0 W/m² | - |
| 1777186628 | 24.44° C | 23% | 963 hPa | - | - | 0 W/m² | - |
| 1777184803 | 22.78° C | 23% | 964 hPa | - | - | 0 W/m² | - |
| 1777182979 | 22.78° C | 25% | 964 hPa | - | - | 0 W/m² | - |
| 1777181154 | 21.11° C | 28% | 964 hPa | - | - | 0 W/m² | - |
| 1777179330 | 19.44° C | 30% | 964 hPa | - | - | 0 W/m² | - |
| 1777177506 | 17.78° C | 33% | 964 hPa | - | - | 0 W/m² | - |
| 1777175682 | 17.22° C | 34% | 965 hPa | - | - | 0 W/m² | - |
| 1777170209 | 13.33° C | 43% | 965 hPa | - | - | 0 W/m² | - |
| 1777166560 | 11.67° C | 47% | 966 hPa | - | - | 0 W/m² | - |
| 1777164736 | 12.22° C | 46% | 966 hPa | - | - | 0 W/m² | - |
| 1777162912 | 12.22° C | 48% | 966 hPa | - | - | 0 W/m² | - |
| 1777161089 | 11.67° C | 49% | 967 hPa | - | - | 0 W/m² | - |
| 1777159264 | 12.22° C | 49% | 967 hPa | - | - | 0 W/m² | - |
* Rain since midnight (hover to see other rain measurements)
** Current wind speed in m/s (hover to see current wind gust speed)